Time,TemperatureF,DewpointF,PressureIn,WindDirection,WindDirectionDegrees,WindSpeedMPH,WindSpeedGustMPH,Humidity,HourlyPrecipIn,Conditions,Clouds,dailyrainin,SoftwareType,DateUTC
2013-07-03 00:03:00,64.0,50.0,27.06,SE,133,8.0,9.0,59,0.00,,,-99.99,,2013-07-03 05:03:00,
2013-07-03 00:13:00,64.0,50.0,27.06,SE,125,8.0,9.0,60,0.00,,,-99.99,,2013-07-03 05:13:00,
2013-07-03 00:18:00,63.0,48.0,27.06,SE,125,8.0,9.0,60,0.00,,,-99.99,,2013-07-03 05:18:00,
2013-07-03 00:28:00,63.0,48.0,27.06,SE,134,8.0,10.0,60,0.00,,,-99.99,,2013-07-03 05:28:00,
2013-07-03 00:33:00,63.0,50.0,27.06,SE,128,9.0,10.0,61,0.00,,,-99.99,,2013-07-03 05:33:00,
2013-07-03 00:48:00,63.0,50.0,27.06,SE,131,8.0,10.0,63,0.00,,,-99.99,,2013-07-03 05:48:00,
2013-07-03 00:53:00,62.0,50.0,27.05,SE,128,8.0,10.0,63,0.00,,,-99.99,,2013-07-03 05:53:00,
2013-07-03 00:58:00,62.0,50.0,27.05,SE,128,8.0,9.0,64,0.00,,,-99.99,,2013-07-03 05:58:00,
2013-07-03 01:03:00,62.0,50.0,27.05,ESE,121,8.0,9.0,64,0.00,,,-99.99,,2013-07-03 06:03:00,
2013-07-03 01:08:00,62.0,50.0,27.05,SE,128,8.0,10.0,63,0.00,,,-99.99,,2013-07-03 06:08:00,
2013-07-03 01:13:00,62.0,50.0,27.05,SE,125,9.0,10.0,63,0.00,,,-99.99,,2013-07-03 06:13:00,
2013-07-03 01:28:00,62.0,50.0,27.05,SE,135,9.0,10.0,65,0.00,,,-99.99,,2013-07-03 06:28:00,
2013-07-03 01:33:00,62.0,50.0,27.05,SE,135,9.0,10.0,64,0.00,,,-99.99,,2013-07-03 06:33:00,
2013-07-03 01:48:00,62.0,50.0,27.05,SE,127,9.0,9.0,65,0.00,,,-99.99,,2013-07-03 06:48:00,
2013-07-03 01:58:00,61.0,50.0,27.05,ESE,121,9.0,9.0,66,0.00,,,-99.99,,2013-07-03 06:58:00,
2013-07-03 02:03:00,61.0,50.0,27.04,ESE,123,9.0,9.0,66,0.00,,,-99.99,,2013-07-03 07:03:00,
2013-07-03 02:08:00,61.0,50.0,27.04,SE,128,8.0,9.0,66,0.00,,,-99.99,,2013-07-03 07:08:00,
2013-07-03 02:13:00,61.0,50.0,27.04,SE,131,9.0,10.0,67,0.00,,,-99.99,,2013-07-03 07:13:00,
2013-07-03 02:18:00,61.0,50.0,27.04,SE,137,8.0,9.0,67,0.00,,,-99.99,,2013-07-03 07:18:00,
2013-07-03 02:28:00,61.0,50.0,27.04,SE,137,8.0,9.0,67,0.00,,,-99.99,,2013-07-03 07:28:00,
2013-07-03 02:33:00,61.0,50.0,27.04,SE,140,8.0,9.0,66,0.00,,,-99.99,,2013-07-03 07:33:00,
2013-07-03 02:43:00,60.0,50.0,27.04,SSE,147,7.0,7.0,68,0.00,,,-99.99,,2013-07-03 07:43:00,
2013-07-03 02:48:00,60.0,50.0,27.03,SSE,154,8.0,8.0,69,0.00,,,-99.99,,2013-07-03 07:48:00,
2013-07-03 03:08:00,59.0,50.0,27.03,SSE,161,8.0,9.0,71,0.00,,,-99.99,,2013-07-03 08:08:00,
2013-07-03 03:18:00,59.0,50.0,27.02,SSE,162,7.0,8.0,71,0.00,,,-99.99,,2013-07-03 08:18:00,
2013-07-03 03:23:00,59.0,50.0,27.02,South,171,6.0,7.0,71,0.00,,,-99.99,,2013-07-03 08:23:00,
2013-07-03 03:33:00,58.0,48.0,27.02,South,182,6.0,6.0,72,0.00,,,-99.99,,2013-07-03 08:33:00,
2013-07-03 03:38:00,58.0,48.0,27.02,South,178,6.0,7.0,72,0.00,,,-99.99,,2013-07-03 08:38:00,
2013-07-03 03:48:00,58.0,50.0,27.02,South,179,6.0,7.0,73,0.00,,,-99.99,,2013-07-03 08:48:00,
2013-07-03 03:53:00,58.0,50.0,27.02,South,178,6.0,6.0,73,0.00,,,-99.99,,2013-07-03 08:53:00,
2013-07-03 04:08:00,57.0,48.0,27.01,South,175,6.0,6.0,74,0.00,,,-99.99,,2013-07-03 09:08:00,
2013-07-03 04:13:00,56.0,48.0,27.01,South,179,6.0,6.0,74,0.00,,,-99.99,,2013-07-03 09:13:00,
2013-07-03 04:18:00,56.0,48.0,27.01,South,179,5.0,5.0,76,0.00,,,-99.99,,2013-07-03 09:18:00,
2013-07-03 04:43:00,57.0,48.0,27.01,South,179,5.0,6.0,73,0.00,,,-99.99,,2013-07-03 09:43:00,
2013-07-03 04:48:00,57.0,48.0,27.01,South,183,4.0,5.0,73,0.00,,,-99.99,,2013-07-03 09:48:00,
2013-07-03 04:58:00,57.0,48.0,27.00,South,183,5.0,5.0,72,0.00,,,-99.99,,2013-07-03 09:58:00,
2013-07-03 05:03:00,57.0,48.0,27.01,South,185,5.0,6.0,72,0.00,,,-99.99,,2013-07-03 10:03:00,
2013-07-03 05:13:00,57.0,48.0,27.00,South,189,4.0,5.0,72,0.00,,,-99.99,,2013-07-03 10:13:00,
2013-07-03 05:18:00,57.0,48.0,27.00,South,185,4.0,5.0,72,0.00,,,-99.99,,2013-07-03 10:18:00,
2013-07-03 05:23:00,57.0,48.0,27.00,South,190,4.0,5.0,72,0.00,,,-99.99,,2013-07-03 10:23:00,
2013-07-03 05:33:00,56.0,46.0,27.00,South,189,4.0,4.0,72,0.00,,,-99.99,,2013-07-03 10:33:00,
2013-07-03 05:38:00,56.0,48.0,27.00,SSW,193,4.0,5.0,73,0.00,,,-99.99,,2013-07-03 10:38:00,
2013-07-03 05:48:00,55.0,46.0,27.00,North,0,0.0,0.0,74,0.00,,,-99.99,,2013-07-03 10:48:00,
2013-07-03 06:08:00,55.0,48.0,27.00,North,0,0.0,0.0,76,0.00,,,-99.99,,2013-07-03 11:08:00,
2013-07-03 06:13:00,55.0,48.0,27.00,North,0,0.0,0.0,77,0.00,,,-99.99,,2013-07-03 11:13:00,
2013-07-03 06:23:00,55.0,48.0,27.00,North,0,0.0,0.0,78,0.00,,,-99.99,,2013-07-03 11:23:00,
2013-07-03 06:28:00,55.0,48.0,27.00,North,0,0.0,0.0,78,0.00,,,-99.99,,2013-07-03 11:28:00,
2013-07-03 06:43:00,54.0,46.0,27.00,ESE,111,6.0,7.0,78,0.00,,,-99.99,,2013-07-03 11:43:00,
2013-07-03 06:48:00,54.0,46.0,27.00,ESE,107,6.0,6.0,78,0.00,,,-99.99,,2013-07-03 11:48:00,
2013-07-03 06:53:00,54.0,46.0,27.01,ESE,114,6.0,6.0,77,0.00,,,-99.99,,2013-07-03 11:53:00,
2013-07-03 07:03:00,55.0,48.0,27.00,ESE,117,5.0,5.0,78,0.00,,,-99.99,,2013-07-03 12:03:00,
2013-07-03 07:18:00,56.0,50.0,27.00,ESE,114,7.0,7.0,79,0.00,,,-99.99,,2013-07-03 12:18:00,
2013-07-03 07:23:00,56.0,50.0,27.00,ESE,114,7.0,7.0,80,0.00,,,-99.99,,2013-07-03 12:23:00,
2013-07-03 07:33:00,57.0,50.0,27.01,ESE,113,6.0,7.0,80,0.00,,,-99.99,,2013-07-03 12:33:00,
2013-07-03 07:38:00,57.0,50.0,27.00,ESE,111,6.0,7.0,79,0.00,,,-99.99,,2013-07-03 12:38:00,
2013-07-03 07:43:00,57.0,50.0,27.00,ESE,106,6.0,7.0,78,0.00,,,-99.99,,2013-07-03 12:43:00,
2013-07-03 07:48:00,58.0,50.0,27.00,ESE,113,5.0,6.0,76,0.00,,,-99.99,,2013-07-03 12:48:00,
2013-07-03 08:03:00,60.0,52.0,27.00,ESE,111,5.0,6.0,72,0.00,,,-99.99,,2013-07-03 13:03:00,
2013-07-03 08:08:00,60.0,50.0,27.00,ESE,111,6.0,6.0,71,0.00,,,-99.99,,2013-07-03 13:08:00,
2013-07-03 08:18:00,61.0,50.0,27.00,ESE,107,4.0,5.0,69,0.00,,,-99.99,,2013-07-03 13:18:00,
2013-07-03 08:28:00,63.0,52.0,27.00,ESE,107,1.0,3.0,68,0.00,,,-99.99,,2013-07-03 13:28:00,
2013-07-03 08:38:00,65.0,54.0,27.00,North,0,0.0,0.0,65,0.00,,,-99.99,,2013-07-03 13:38:00,
2013-07-03 08:48:00,67.0,54.0,27.01,SE,130,3.0,4.0,61,0.00,,,-99.99,,2013-07-03 13:48:00,
2013-07-03 08:53:00,68.0,54.0,27.01,SSE,165,5.0,6.0,61,0.00,,,-99.99,,2013-07-03 13:53:00,
2013-07-03 08:58:00,68.0,54.0,27.00,SSE,165,5.0,6.0,60,0.00,,,-99.99,,2013-07-03 13:58:00,
2013-07-03 09:18:00,71.0,52.0,27.00,South,178,6.0,7.0,52,0.00,,,-99.99,,2013-07-03 14:18:00,
2013-07-03 09:23:00,72.0,54.0,27.00,SSW,193,5.0,6.0,51,0.00,,,-99.99,,2013-07-03 14:23:00,
2013-07-03 09:33:00,73.0,52.0,27.00,South,188,7.0,10.0,49,0.00,,,-99.99,,2013-07-03 14:33:00,
2013-07-03 09:38:00,73.0,52.0,27.00,South,183,8.0,9.0,48,0.00,,,-99.99,,2013-07-03 14:38:00,
2013-07-03 09:48:00,74.0,52.0,27.00,SSW,192,8.0,10.0,46,0.00,,,-99.99,,2013-07-03 14:48:00,
2013-07-03 09:53:00,75.0,52.0,27.00,South,183,7.0,8.0,45,0.00,,,-99.99,,2013-07-03 14:53:00,
2013-07-03 09:58:00,76.0,52.0,27.00,South,185,7.0,9.0,44,0.00,,,-99.99,,2013-07-03 14:58:00,
2013-07-03 10:03:00,76.0,52.0,26.99,SSW,195,4.0,6.0,43,0.00,,,-99.99,,2013-07-03 15:03:00,
2013-07-03 10:13:00,78.0,52.0,26.99,South,183,8.0,10.0,41,0.00,,,-99.99,,2013-07-03 15:13:00,
2013-07-03 10:18:00,78.0,52.0,26.99,South,183,10.0,13.0,40,0.00,,,-99.99,,2013-07-03 15:18:00,
2013-07-03 10:23:00,78.0,52.0,26.99,South,171,9.0,11.0,40,0.00,,,-99.99,,2013-07-03 15:23:00,
2013-07-03 10:33:00,80.0,52.0,26.98,South,190,9.0,11.0,38,0.00,,,-99.99,,2013-07-03 15:33:00,
2013-07-03 10:38:00,80.0,52.0,26.98,South,183,11.0,13.0,38,0.00,,,-99.99,,2013-07-03 15:38:00,
2013-07-03 10:48:00,81.0,52.0,26.98,South,182,10.0,12.0,36,0.00,,,-99.99,,2013-07-03 15:48:00,
2013-07-03 10:53:00,81.0,52.0,26.98,South,180,10.0,14.0,36,0.00,,,-99.99,,2013-07-03 15:53:00,
2013-07-03 11:03:00,82.0,50.0,26.97,South,186,10.0,12.0,34,0.00,,,-99.99,,2013-07-03 16:03:00,
2013-07-03 11:08:00,82.0,54.0,26.97,SSW,192,13.0,15.0,37,0.00,,,-99.99,,2013-07-03 16:08:00,
2013-07-03 11:23:00,83.0,50.0,26.97,South,173,12.0,15.0,33,0.00,,,-99.99,,2013-07-03 16:23:00,
2013-07-03 11:28:00,83.0,52.0,26.97,SSW,195,9.0,13.0,34,0.00,,,-99.99,,2013-07-03 16:28:00,
2013-07-03 11:33:00,84.0,50.0,26.97,South,190,11.0,14.0,31,0.00,,,-99.99,,2013-07-03 16:33:00,
2013-07-03 11:48:00,85.0,45.0,26.96,SW,226,7.0,11.0,24,0.00,,,-99.99,,2013-07-03 16:48:00,
2013-07-03 11:53:00,85.0,46.0,26.96,South,178,10.0,13.0,26,0.00,,,-99.99,,2013-07-03 16:53:00,
2013-07-03 12:03:00,86.0,46.0,26.96,South,182,12.0,14.0,25,0.00,,,-99.99,,2013-07-03 17:03:00,
2013-07-03 12:08:00,86.0,45.0,26.96,SSW,193,10.0,15.0,24,0.00,,,-99.99,,2013-07-03 17:08:00,
2013-07-03 12:18:00,86.0,46.0,26.95,SSW,192,12.0,15.0,25,0.00,,,-99.99,,2013-07-03 17:18:00,
2013-07-03 12:23:00,86.0,46.0,26.95,SSE,158,9.0,11.0,25,0.00,,,-99.99,,2013-07-03 17:23:00,
2013-07-03 12:33:00,86.0,46.0,26.95,SSW,203,10.0,14.0,25,0.00,,,-99.99,,2013-07-03 17:33:00,
2013-07-03 12:38:00,86.0,45.0,26.95,SW,216,7.0,10.0,24,0.00,,,-99.99,,2013-07-03 17:38:00,
2013-07-03 12:48:00,87.0,43.0,26.94,SSE,149,13.0,16.0,22,0.00,,,-99.99,,2013-07-03 17:48:00,
2013-07-03 12:58:00,88.0,46.0,26.94,South,169,15.0,19.0,24,0.00,,,-99.99,,2013-07-03 17:58:00,
2013-07-03 13:03:00,88.0,43.0,26.94,SSE,168,11.0,16.0,21,0.00,,,-99.99,,2013-07-03 18:03:00,
2013-07-03 13:13:00,87.0,43.0,26.94,SSE,157,14.0,16.0,22,0.00,,,-99.99,,2013-07-03 18:13:00,
2013-07-03 13:18:00,87.0,39.0,26.94,South,180,9.0,11.0,19,0.00,,,-99.99,,2013-07-03 18:18:00,
2013-07-03 13:28:00,88.0,43.0,26.94,South,175,14.0,17.0,21,0.00,,,-99.99,,2013-07-03 18:28:00,
2013-07-03 13:33:00,88.0,41.0,26.93,South,171,13.0,16.0,20,0.00,,,-99.99,,2013-07-03 18:33:00,
2013-07-03 13:38:00,88.0,45.0,26.93,SSE,154,12.0,16.0,22,0.00,,,-99.99,,2013-07-03 18:38:00,
2013-07-03 13:53:00,88.0,34.0,26.93,SE,145,11.0,13.0,15,0.00,,,-99.99,,2013-07-03 18:53:00,
2013-07-03 13:58:00,88.0,43.0,26.92,SSE,164,10.0,13.0,21,0.00,,,-99.99,,2013-07-03 18:58:00,
2013-07-03 14:03:00,89.0,36.0,26.92,South,179,15.0,21.0,15,0.00,,,-99.99,,2013-07-03 19:03:00,
2013-07-03 14:08:00,89.0,39.0,26.92,South,186,14.0,16.0,17,0.00,,,-99.99,,2013-07-03 19:08:00,
2013-07-03 14:23:00,88.0,41.0,26.92,SSW,196,12.0,17.0,19,0.00,,,-99.99,,2013-07-03 19:23:00,
2013-07-03 14:33:00,89.0,45.0,26.91,SW,221,13.0,19.0,21,0.00,,,-99.99,,2013-07-03 19:33:00,
2013-07-03 14:38:00,89.0,45.0,26.91,WSW,240,10.0,13.0,21,0.00,,,-99.99,,2013-07-03 19:38:00,
2013-07-03 14:48:00,90.0,34.0,26.91,South,178,11.0,15.0,14,0.00,,,-99.99,,2013-07-03 19:48:00,
2013-07-03 14:53:00,91.0,36.0,26.91,SSW,199,16.0,21.0,14,0.00,,,-99.99,,2013-07-03 19:53:00,
2013-07-03 15:03:00,91.0,39.0,26.91,SW,221,10.0,14.0,17,0.00,,,-99.99,,2013-07-03 20:03:00,
2013-07-03 15:13:00,89.0,25.0,26.90,South,171,14.0,17.0,10,0.00,,,-99.99,,2013-07-03 20:13:00,
2013-07-03 15:18:00,89.0,32.0,26.90,SSW,192,16.0,20.0,13,0.00,,,-99.99,,2013-07-03 20:18:00,
2013-07-03 15:33:00,91.0,36.0,26.90,SSE,147,13.0,16.0,14,0.00,,,-99.99,,2013-07-03 20:33:00,
2013-07-03 15:43:00,90.0,39.0,26.89,SSE,147,11.0,13.0,17,0.00,,,-99.99,,2013-07-03 20:43:00,
2013-07-03 15:48:00,90.0,37.0,26.89,South,178,13.0,16.0,16,0.00,,,-99.99,,2013-07-03 20:48:00,
2013-07-03 15:58:00,90.0,32.0,26.89,South,169,14.0,18.0,13,0.00,,,-99.99,,2013-07-03 20:58:00,
2013-07-03 16:13:00,91.0,28.0,26.89,SE,124,12.0,16.0,11,0.00,,,-99.99,,2013-07-03 21:13:00,
2013-07-03 16:18:00,91.0,32.0,26.89,SSW,193,17.0,20.0,12,0.00,,,-99.99,,2013-07-03 21:18:00,
2013-07-03 16:23:00,91.0,28.0,26.88,South,176,9.0,11.0,11,0.00,,,-99.99,,2013-07-03 21:23:00,
2013-07-03 16:28:00,90.0,28.0,26.88,South,171,11.0,15.0,11,0.00,,,-99.99,,2013-07-03 21:28:00,
2013-07-03 16:33:00,91.0,34.0,26.88,SW,226,8.0,11.0,13,0.00,,,-99.99,,2013-07-03 21:33:00,
2013-07-03 16:43:00,92.0,28.0,26.88,SSE,152,15.0,18.0,10,0.00,,,-99.99,,2013-07-03 21:43:00,
2013-07-03 16:58:00,92.0,37.0,26.88,SSW,202,11.0,15.0,15,0.00,,,-99.99,,2013-07-03 21:58:00,
2013-07-03 17:08:00,92.0,32.0,26.87,South,189,10.0,12.0,12,0.00,,,-99.99,,2013-07-03 22:08:00,
2013-07-03 17:23:00,91.0,28.0,26.86,SSE,168,11.0,14.0,11,0.00,,,-99.99,,2013-07-03 22:23:00,
2013-07-03 17:28:00,92.0,36.0,26.86,SSE,149,10.0,14.0,14,0.00,,,-99.99,,2013-07-03 22:28:00,
2013-07-03 17:38:00,92.0,28.0,26.86,SSE,168,15.0,17.0,10,0.00,,,-99.99,,2013-07-03 22:38:00,
2013-07-03 17:58:00,91.0,39.0,26.86,South,183,11.0,13.0,16,0.00,,,-99.99,,2013-07-03 22:58:00,
2013-07-03 18:03:00,91.0,39.0,26.85,South,178,15.0,18.0,16,0.00,,,-99.99,,2013-07-03 23:03:00,
2013-07-03 18:13:00,91.0,37.0,26.85,South,176,14.0,18.0,15,0.00,,,-99.99,,2013-07-03 23:13:00,
2013-07-03 18:18:00,91.0,39.0,26.85,South,175,9.0,10.0,17,0.00,,,-99.99,,2013-07-03 23:18:00,
2013-07-03 18:23:00,91.0,28.0,26.84,South,178,16.0,19.0,11,0.00,,,-99.99,,2013-07-03 23:23:00,
2013-07-03 18:33:00,90.0,34.0,26.85,South,179,15.0,17.0,14,0.00,,,-99.99,,2013-07-03 23:33:00,
2013-07-03 18:38:00,90.0,43.0,26.85,SSW,196,12.0,14.0,20,0.00,,,-99.99,,2013-07-03 23:38:00,
2013-07-03 18:43:00,90.0,41.0,26.84,SSE,165,10.0,13.0,18,0.00,,,-99.99,,2013-07-03 23:43:00,
2013-07-03 18:48:00,90.0,41.0,26.84,South,176,12.0,15.0,18,0.00,,,-99.99,,2013-07-03 23:48:00,
2013-07-03 18:58:00,90.0,43.0,26.84,South,176,13.0,16.0,19,0.00,,,-99.99,,2013-07-03 23:58:00,
2013-07-03 19:08:00,90.0,41.0,26.84,SSE,164,11.0,13.0,18,0.00,,,-99.99,,2013-07-04 00:08:00,
2013-07-03 19:13:00,90.0,41.0,26.84,South,186,13.0,14.0,18,0.00,,,-99.99,,2013-07-04 00:13:00,
2013-07-03 19:23:00,89.0,41.0,26.84,South,188,12.0,14.0,19,0.00,,,-99.99,,2013-07-04 00:23:00,
2013-07-03 19:28:00,89.0,41.0,26.84,SSE,166,11.0,14.0,19,0.00,,,-99.99,,2013-07-04 00:28:00,
2013-07-03 19:33:00,89.0,36.0,26.84,SSE,164,13.0,15.0,15,0.00,,,-99.99,,2013-07-04 00:33:00,
2013-07-03 19:43:00,88.0,41.0,26.84,SSW,192,13.0,14.0,19,0.00,,,-99.99,,2013-07-04 00:43:00,
2013-07-03 19:53:00,88.0,43.0,26.84,SSE,164,11.0,14.0,21,0.00,,,-99.99,,2013-07-04 00:53:00,
2013-07-03 20:03:00,87.0,39.0,26.84,SSE,154,13.0,16.0,19,0.00,,,-99.99,,2013-07-04 01:03:00,
2013-07-03 20:08:00,86.0,41.0,26.84,SSE,166,11.0,13.0,21,0.00,,,-99.99,,2013-07-04 01:08:00,
2013-07-03 20:13:00,86.0,41.0,26.84,SSE,158,12.0,14.0,21,0.00,,,-99.99,,2013-07-04 01:13:00,
2013-07-03 20:18:00,85.0,43.0,26.84,SSE,162,11.0,13.0,23,0.00,,,-99.99,,2013-07-04 01:18:00,
2013-07-03 20:23:00,85.0,43.0,26.84,SSE,161,11.0,13.0,23,0.00,,,-99.99,,2013-07-04 01:23:00,
2013-07-03 20:33:00,83.0,41.0,26.84,SSE,161,12.0,13.0,23,0.00,,,-99.99,,2013-07-04 01:33:00,
2013-07-03 20:38:00,83.0,43.0,26.84,SSE,155,11.0,13.0,24,0.00,,,-99.99,,2013-07-04 01:38:00,
2013-07-03 20:43:00,82.0,45.0,26.84,SSE,152,10.0,12.0,26,0.00,,,-99.99,,2013-07-04 01:43:00,
2013-07-03 20:48:00,81.0,45.0,26.84,SSE,168,10.0,11.0,27,0.00,,,-99.99,,2013-07-04 01:48:00,
2013-07-03 20:58:00,80.0,45.0,26.85,SSE,168,11.0,14.0,28,0.00,,,-99.99,,2013-07-04 01:58:00,
2013-07-03 21:03:00,80.0,45.0,26.85,SSE,158,12.0,13.0,28,0.00,,,-99.99,,2013-07-04 02:03:00,
2013-07-03 21:08:00,79.0,43.0,26.85,SSE,165,11.0,13.0,27,0.00,,,-99.99,,2013-07-04 02:08:00,
2013-07-03 21:18:00,78.0,41.0,26.85,South,169,11.0,14.0,26,0.00,,,-99.99,,2013-07-04 02:18:00,
2013-07-03 21:23:00,78.0,45.0,26.85,SSE,165,10.0,12.0,31,0.00,,,-99.99,,2013-07-04 02:23:00,
2013-07-03 21:38:00,76.0,41.0,26.86,South,173,10.0,12.0,28,0.00,,,-99.99,,2013-07-04 02:38:00,
2013-07-03 21:43:00,76.0,41.0,26.86,South,169,11.0,13.0,28,0.00,,,-99.99,,2013-07-04 02:43:00,
2013-07-03 21:48:00,75.0,41.0,26.86,South,169,11.0,12.0,30,0.00,,,-99.99,,2013-07-04 02:48:00,
2013-07-03 21:58:00,75.0,43.0,26.86,SSE,168,10.0,11.0,31,0.00,,,-99.99,,2013-07-04 02:58:00,
2013-07-03 22:03:00,74.0,41.0,26.86,South,171,11.0,12.0,31,0.00,,,-99.99,,2013-07-04 03:03:00,
2013-07-03 22:13:00,74.0,43.0,26.86,South,169,10.0,12.0,33,0.00,,,-99.99,,2013-07-04 03:13:00,
2013-07-03 22:23:00,74.0,45.0,26.87,SSE,161,10.0,12.0,34,0.00,,,-99.99,,2013-07-04 03:23:00,
2013-07-03 22:33:00,73.0,45.0,26.87,SSE,165,11.0,14.0,36,0.00,,,-99.99,,2013-07-04 03:33:00,
2013-07-03 22:48:00,72.0,45.0,26.87,SSE,159,11.0,15.0,38,0.00,,,-99.99,,2013-07-04 03:48:00,
2013-07-03 22:53:00,71.0,46.0,26.87,SE,145,11.0,13.0,41,0.00,,,-99.99,,2013-07-04 03:53:00,
2013-07-03 22:58:00,71.0,48.0,26.88,SSE,154,11.0,13.0,43,0.00,,,-99.99,,2013-07-04 03:58:00,
2013-07-03 23:08:00,70.0,46.0,26.88,SE,144,12.0,15.0,42,0.00,,,-99.99,,2013-07-04 04:08:00,
2013-07-03 23:18:00,70.0,45.0,26.88,SSE,151,11.0,13.0,39,0.00,,,-99.99,,2013-07-04 04:18:00,
2013-07-03 23:28:00,70.0,50.0,26.88,SSE,159,12.0,14.0,48,0.00,,,-99.99,,2013-07-04 04:28:00,
2013-07-03 23:33:00,70.0,46.0,26.88,SSE,161,13.0,16.0,44,0.00,,,-99.99,,2013-07-04 04:33:00,
2013-07-03 23:43:00,70.0,46.0,26.88,SSE,162,13.0,16.0,42,0.00,,,-99.99,,2013-07-04 04:43:00,
2013-07-03 23:53:00,70.0,45.0,26.88,SSE,165,14.0,16.0,41,0.00,,,-99.99,,2013-07-04 04:53:00,
2013-07-03 23:58:00,70.0,46.0,26.88,SSE,168,14.0,17.0,43,0.00,,,-99.99,,2013-07-04 04:58:00,